sensor_id;sensor_type;location;lat;lon;timestamp;temperature;humidity
33476;DHT22;19814;48.224;11.422;2023-10-08T00:02:03;16.50;72.00
33476;DHT22;19814;48.224;11.422;2023-10-08T00:04:29;16.50;72.30
33476;DHT22;19814;48.224;11.422;2023-10-08T00:06:54;16.50;71.90
33476;DHT22;19814;48.224;11.422;2023-10-08T00:09:20;16.50;72.10
33476;DHT22;19814;48.224;11.422;2023-10-08T00:11:46;16.60;70.10
33476;DHT22;19814;48.224;11.422;2023-10-08T00:14:18;16.70;70.70
33476;DHT22;19814;48.224;11.422;2023-10-08T00:16:47;16.70;69.60
33476;DHT22;19814;48.224;11.422;2023-10-08T00:19:15;16.80;68.60
33476;DHT22;19814;48.224;11.422;2023-10-08T00:21:43;16.80;69.20
33476;DHT22;19814;48.224;11.422;2023-10-08T00:24:10;16.90;68.10
33476;DHT22;19814;48.224;11.422;2023-10-08T00:26:36;16.90;68.20
33476;DHT22;19814;48.224;11.422;2023-10-08T00:29:06;16.90;68.30
33476;DHT22;19814;48.224;11.422;2023-10-08T00:31:40;17.00;67.60
33476;DHT22;19814;48.224;11.422;2023-10-08T00:34:07;17.10;67.50
33476;DHT22;19814;48.224;11.422;2023-10-08T00:36:37;17.10;67.50
33476;DHT22;19814;48.224;11.422;2023-10-08T00:39:04;17.10;68.30
33476;DHT22;19814;48.224;11.422;2023-10-08T00:41:40;17.10;67.80
33476;DHT22;19814;48.224;11.422;2023-10-08T00:44:08;17.10;68.20
33476;DHT22;19814;48.224;11.422;2023-10-08T00:46:37;17.10;68.00
33476;DHT22;19814;48.224;11.422;2023-10-08T00:49:23;17.10;67.20
33476;DHT22;19814;48.224;11.422;2023-10-08T00:52:09;17.20;65.70
33476;DHT22;19814;48.224;11.422;2023-10-08T00:54:36;17.20;67.20
33476;DHT22;19814;48.224;11.422;2023-10-08T00:57:19;17.20;68.10
33476;DHT22;19814;48.224;11.422;2023-10-08T00:59:47;17.20;67.20
33476;DHT22;19814;48.224;11.422;2023-10-08T01:02:24;17.20;65.10
33476;DHT22;19814;48.224;11.422;2023-10-08T01:04:53;17.20;67.60
33476;DHT22;19814;48.224;11.422;2023-10-08T01:07:20;17.20;66.40
33476;DHT22;19814;48.224;11.422;2023-10-08T01:09:46;17.20;67.50
33476;DHT22;19814;48.224;11.422;2023-10-08T01:12:24;17.20;65.80
33476;DHT22;19814;48.224;11.422;2023-10-08T01:14:53;17.20;66.60
33476;DHT22;19814;48.224;11.422;2023-10-08T01:17:23;17.20;66.30
33476;DHT22;19814;48.224;11.422;2023-10-08T01:19:50;17.20;64.40
33476;DHT22;19814;48.224;11.422;2023-10-08T01:22:36;17.30;66.40
33476;DHT22;19814;48.224;11.422;2023-10-08T01:25:04;17.30;65.00
33476;DHT22;19814;48.224;11.422;2023-10-08T01:27:31;17.30;64.30
33476;DHT22;19814;48.224;11.422;2023-10-08T01:30:00;17.30;64.80
33476;DHT22;19814;48.224;11.422;2023-10-08T01:32:44;17.40;63.90
33476;DHT22;19814;48.224;11.422;2023-10-08T01:35:10;17.40;64.60
33476;DHT22;19814;48.224;11.422;2023-10-08T01:37:51;17.40;62.90
33476;DHT22;19814;48.224;11.422;2023-10-08T01:40:18;17.40;65.40
33476;DHT22;19814;48.224;11.422;2023-10-08T01:42:44;17.40;64.80
33476;DHT22;19814;48.224;11.422;2023-10-08T01:45:11;17.30;65.70
33476;DHT22;19814;48.224;11.422;2023-10-08T01:47:45;17.30;66.20
33476;DHT22;19814;48.224;11.422;2023-10-08T01:50:10;17.30;66.10
33476;DHT22;19814;48.224;11.422;2023-10-08T01:52:50;17.30;66.20
33476;DHT22;19814;48.224;11.422;2023-10-08T01:55:19;17.30;65.20
33476;DHT22;19814;48.224;11.422;2023-10-08T01:57:49;17.30;65.30
33476;DHT22;19814;48.224;11.422;2023-10-08T02:00:15;17.30;66.00
33476;DHT22;19814;48.224;11.422;2023-10-08T02:02:51;17.30;65.40
33476;DHT22;19814;48.224;11.422;2023-10-08T02:05:17;17.20;66.10
33476;DHT22;19814;48.224;11.422;2023-10-08T02:07:47;17.30;66.20
33476;DHT22;19814;48.224;11.422;2023-10-08T02:10:13;17.30;66.70
33476;DHT22;19814;48.224;11.422;2023-10-08T02:12:41;17.30;66.80
33476;DHT22;19814;48.224;11.422;2023-10-08T02:15:08;17.30;66.40
33476;DHT22;19814;48.224;11.422;2023-10-08T02:17:34;17.30;65.70
33476;DHT22;19814;48.224;11.422;2023-10-08T02:20:01;17.30;66.40
33476;DHT22;19814;48.224;11.422;2023-10-08T02:22:30;17.30;65.20
33476;DHT22;19814;48.224;11.422;2023-10-08T02:24:56;17.30;66.30
33476;DHT22;19814;48.224;11.422;2023-10-08T02:27:29;17.40;65.40
33476;DHT22;19814;48.224;11.422;2023-10-08T02:29:58;17.40;65.30
33476;DHT22;19814;48.224;11.422;2023-10-08T02:32:23;17.40;64.90
33476;DHT22;19814;48.224;11.422;2023-10-08T02:34:49;17.40;65.90
33476;DHT22;19814;48.224;11.422;2023-10-08T02:37:16;17.40;65.20
33476;DHT22;19814;48.224;11.422;2023-10-08T02:39:41;17.40;66.10
33476;DHT22;19814;48.224;11.422;2023-10-08T02:42:08;17.30;64.30
33476;DHT22;19814;48.224;11.422;2023-10-08T02:44:36;17.40;64.40
33476;DHT22;19814;48.224;11.422;2023-10-08T02:47:10;17.40;65.10
33476;DHT22;19814;48.224;11.422;2023-10-08T02:49:47;17.50;64.80
33476;DHT22;19814;48.224;11.422;2023-10-08T02:52:17;17.50;65.90
33476;DHT22;19814;48.224;11.422;2023-10-08T02:54:43;17.40;65.90
33476;DHT22;19814;48.224;11.422;2023-10-08T02:57:08;17.40;64.00
33476;DHT22;19814;48.224;11.422;2023-10-08T02:59:40;17.40;65.20
33476;DHT22;19814;48.224;11.422;2023-10-08T03:02:13;17.40;65.00
33476;DHT22;19814;48.224;11.422;2023-10-08T03:04:44;17.40;65.60
33476;DHT22;19814;48.224;11.422;2023-10-08T03:07:16;17.40;64.70
33476;DHT22;19814;48.224;11.422;2023-10-08T03:09:52;17.40;64.90
33476;DHT22;19814;48.224;11.422;2023-10-08T03:12:29;17.40;64.00
33476;DHT22;19814;48.224;11.422;2023-10-08T03:15:00;17.40;64.40
33476;DHT22;19814;48.224;11.422;2023-10-08T03:17:46;17.50;64.10
33476;DHT22;19814;48.224;11.422;2023-10-08T03:20:18;17.50;63.90
33476;DHT22;19814;48.224;11.422;2023-10-08T03:23:02;17.40;65.20
33476;DHT22;19814;48.224;11.422;2023-10-08T03:25:31;17.40;64.80
33476;DHT22;19814;48.224;11.422;2023-10-08T03:27:59;17.40;65.10
33476;DHT22;19814;48.224;11.422;2023-10-08T03:30:24;17.40;64.90
33476;DHT22;19814;48.224;11.422;2023-10-08T03:32:52;17.40;64.40
33476;DHT22;19814;48.224;11.422;2023-10-08T03:35:21;17.30;64.50
33476;DHT22;19814;48.224;11.422;2023-10-08T03:37:53;17.30;64.70
33476;DHT22;19814;48.224;11.422;2023-10-08T03:40:20;17.30;65.20
33476;DHT22;19814;48.224;11.422;2023-10-08T03:42:57;17.30;65.50
33476;DHT22;19814;48.224;11.422;2023-10-08T03:45:23;17.20;64.60
33476;DHT22;19814;48.224;11.422;2023-10-08T03:48:07;17.20;65.60
33476;DHT22;19814;48.224;11.422;2023-10-08T03:50:40;17.20;63.60
33476;DHT22;19814;48.224;11.422;2023-10-08T03:53:08;17.10;63.40
33476;DHT22;19814;48.224;11.422;2023-10-08T03:55:40;17.20;62.80
33476;DHT22;19814;48.224;11.422;2023-10-08T03:58:07;17.10;63.40
33476;DHT22;19814;48.224;11.422;2023-10-08T04:00:36;17.10;61.60
33476;DHT22;19814;48.224;11.422;2023-10-08T04:03:07;17.00;61.40
33476;DHT22;19814;48.224;11.422;2023-10-08T04:05:36;17.00;62.40
33476;DHT22;19814;48.224;11.422;2023-10-08T04:08:09;17.00;62.80
33476;DHT22;19814;48.224;11.422;2023-10-08T04:11:10;17.00;62.60
33476;DHT22;19814;48.224;11.422;2023-10-08T04:13:57;17.00;63.70
33476;DHT22;19814;48.224;11.422;2023-10-08T04:16:27;17.00;65.00
33476;DHT22;19814;48.224;11.422;2023-10-08T04:18:54;17.00;63.00
33476;DHT22;19814;48.224;11.422;2023-10-08T04:21:22;16.90;62.80
33476;DHT22;19814;48.224;11.422;2023-10-08T04:23:48;16.90;63.10
33476;DHT22;19814;48.224;11.422;2023-10-08T04:26:17;16.90;62.40
33476;DHT22;19814;48.224;11.422;2023-10-08T04:28:53;16.90;61.90
33476;DHT22;19814;48.224;11.422;2023-10-08T04:31:28;16.90;61.10
33476;DHT22;19814;48.224;11.422;2023-10-08T04:34:02;16.90;62.40
33476;DHT22;19814;48.224;11.422;2023-10-08T04:36:33;16.80;61.40
33476;DHT22;19814;48.224;11.422;2023-10-08T04:38:59;16.90;61.20
33476;DHT22;19814;48.224;11.422;2023-10-08T04:41:30;16.90;60.40
33476;DHT22;19814;48.224;11.422;2023-10-08T04:43:56;16.90;61.00
33476;DHT22;19814;48.224;11.422;2023-10-08T04:46:22;16.90;61.20
33476;DHT22;19814;48.224;11.422;2023-10-08T04:49:14;17.00;61.40
33476;DHT22;19814;48.224;11.422;2023-10-08T04:51:58;16.90;62.00
33476;DHT22;19814;48.224;11.422;2023-10-08T04:54:25;16.90;62.10
33476;DHT22;19814;48.224;11.422;2023-10-08T04:56:58;16.80;62.60
33476;DHT22;19814;48.224;11.422;2023-10-08T04:59:26;16.80;63.00
33476;DHT22;19814;48.224;11.422;2023-10-08T05:01:59;16.80;64.20
33476;DHT22;19814;48.224;11.422;2023-10-08T05:04:43;16.70;64.90
33476;DHT22;19814;48.224;11.422;2023-10-08T05:07:24;16.70;64.50
33476;DHT22;19814;48.224;11.422;2023-10-08T05:09:52;16.60;66.00
33476;DHT22;19814;48.224;11.422;2023-10-08T05:12:38;16.60;67.10
33476;DHT22;19814;48.224;11.422;2023-10-08T05:15:16;16.50;68.00
33476;DHT22;19814;48.224;11.422;2023-10-08T05:17:43;16.50;66.50
33476;DHT22;19814;48.224;11.422;2023-10-08T05:20:23;16.50;64.70
33476;DHT22;19814;48.224;11.422;2023-10-08T05:23:09;16.50;64.60
33476;DHT22;19814;48.224;11.422;2023-10-08T05:25:52;16.50;64.70
33476;DHT22;19814;48.224;11.422;2023-10-08T05:28:39;16.40;65.00
33476;DHT22;19814;48.224;11.422;2023-10-08T05:31:24;16.40;65.00
33476;DHT22;19814;48.224;11.422;2023-10-08T05:34:13;16.50;66.70
33476;DHT22;19814;48.224;11.422;2023-10-08T05:36:57;16.40;67.00
33476;DHT22;19814;48.224;11.422;2023-10-08T05:39:25;16.40;65.90
33476;DHT22;19814;48.224;11.422;2023-10-08T05:42:19;16.40;65.70
33476;DHT22;19814;48.224;11.422;2023-10-08T05:44:54;16.50;66.90
33476;DHT22;19814;48.224;11.422;2023-10-08T05:47:35;16.40;68.10
33476;DHT22;19814;48.224;11.422;2023-10-08T05:50:02;16.40;69.00
33476;DHT22;19814;48.224;11.422;2023-10-08T05:52:47;16.40;69.70
33476;DHT22;19814;48.224;11.422;2023-10-08T05:55:18;16.40;70.70
33476;DHT22;19814;48.224;11.422;2023-10-08T05:58:01;16.30;71.20
33476;DHT22;19814;48.224;11.422;2023-10-08T06:00:46;16.30;71.30
33476;DHT22;19814;48.224;11.422;2023-10-08T06:03:30;16.30;71.30
33476;DHT22;19814;48.224;11.422;2023-10-08T06:06:18;16.30;72.20
33476;DHT22;19814;48.224;11.422;2023-10-08T06:08:43;16.30;70.20
33476;DHT22;19814;48.224;11.422;2023-10-08T06:11:38;16.30;70.00
33476;DHT22;19814;48.224;11.422;2023-10-08T06:14:21;16.30;71.20
33476;DHT22;19814;48.224;11.422;2023-10-08T06:17:18;16.40;73.20
33476;DHT22;19814;48.224;11.422;2023-10-08T06:20:01;16.40;72.60
33476;DHT22;19814;48.224;11.422;2023-10-08T06:22:35;16.40;72.90
33476;DHT22;19814;48.224;11.422;2023-10-08T06:25:01;16.40;73.40
33476;DHT22;19814;48.224;11.422;2023-10-08T06:27:46;16.50;74.20
33476;DHT22;19814;48.224;11.422;2023-10-08T06:30:13;16.50;75.00
33476;DHT22;19814;48.224;11.422;2023-10-08T06:32:43;16.60;76.40
33476;DHT22;19814;48.224;11.422;2023-10-08T06:35:10;16.60;77.00
33476;DHT22;19814;48.224;11.422;2023-10-08T06:37:45;16.70;76.90
33476;DHT22;19814;48.224;11.422;2023-10-08T06:40:15;16.70;76.10
33476;DHT22;19814;48.224;11.422;2023-10-08T06:43:00;16.80;76.70
33476;DHT22;19814;48.224;11.422;2023-10-08T06:45:37;16.90;74.60
33476;DHT22;19814;48.224;11.422;2023-10-08T06:48:02;17.10;73.50
33476;DHT22;19814;48.224;11.422;2023-10-08T06:50:32;17.20;74.50
33476;DHT22;19814;48.224;11.422;2023-10-08T06:53:00;17.30;73.70
33476;DHT22;19814;48.224;11.422;2023-10-08T06:55:30;17.40;73.60
33476;DHT22;19814;48.224;11.422;2023-10-08T06:57:55;17.50;74.10
33476;DHT22;19814;48.224;11.422;2023-10-08T07:00:21;17.60;74.60
33476;DHT22;19814;48.224;11.422;2023-10-08T07:03:03;17.70;74.50
33476;DHT22;19814;48.224;11.422;2023-10-08T07:05:29;17.70;73.40
33476;DHT22;19814;48.224;11.422;2023-10-08T07:07:54;17.80;71.80
33476;DHT22;19814;48.224;11.422;2023-10-08T07:10:20;17.90;69.10
33476;DHT22;19814;48.224;11.422;2023-10-08T07:12:48;18.00;70.20
33476;DHT22;19814;48.224;11.422;2023-10-08T07:15:15;18.20;70.20
33476;DHT22;19814;48.224;11.422;2023-10-08T07:17:49;18.40;69.70
33476;DHT22;19814;48.224;11.422;2023-10-08T07:20:16;18.50;68.60
33476;DHT22;19814;48.224;11.422;2023-10-08T07:22:42;18.60;69.30
33476;DHT22;19814;48.224;11.422;2023-10-08T07:25:09;19.00;68.00
33476;DHT22;19814;48.224;11.422;2023-10-08T07:27:34;19.30;63.50
33476;DHT22;19814;48.224;11.422;2023-10-08T07:30:03;19.50;63.70
33476;DHT22;19814;48.224;11.422;2023-10-08T07:32:39;19.50;65.60
33476;DHT22;19814;48.224;11.422;2023-10-08T07:35:05;19.60;64.80
33476;DHT22;19814;48.224;11.422;2023-10-08T07:37:42;19.60;65.40
33476;DHT22;19814;48.224;11.422;2023-10-08T07:40:10;19.40;65.30
33476;DHT22;19814;48.224;11.422;2023-10-08T07:42:37;19.30;66.30
33476;DHT22;19814;48.224;11.422;2023-10-08T07:45:03;19.30;66.10
33476;DHT22;19814;48.224;11.422;2023-10-08T07:47:30;19.20;67.90
33476;DHT22;19814;48.224;11.422;2023-10-08T07:49:56;19.10;68.80
33476;DHT22;19814;48.224;11.422;2023-10-08T07:52:21;19.00;68.20
33476;DHT22;19814;48.224;11.422;2023-10-08T07:54:47;18.90;69.00
33476;DHT22;19814;48.224;11.422;2023-10-08T07:57:13;18.80;69.30
33476;DHT22;19814;48.224;11.422;2023-10-08T07:59:44;18.70;69.30
33476;DHT22;19814;48.224;11.422;2023-10-08T08:02:14;18.60;69.30
33476;DHT22;19814;48.224;11.422;2023-10-08T08:04:41;18.50;70.00
33476;DHT22;19814;48.224;11.422;2023-10-08T08:07:16;18.50;70.60
33476;DHT22;19814;48.224;11.422;2023-10-08T08:09:46;18.50;70.60
33476;DHT22;19814;48.224;11.422;2023-10-08T08:12:24;18.50;68.60
33476;DHT22;19814;48.224;11.422;2023-10-08T08:14:54;18.60;69.10
33476;DHT22;19814;48.224;11.422;2023-10-08T08:17:20;18.70;70.30
33476;DHT22;19814;48.224;11.422;2023-10-08T08:19:49;18.70;68.60
33476;DHT22;19814;48.224;11.422;2023-10-08T08:22:18;18.70;70.70
33476;DHT22;19814;48.224;11.422;2023-10-08T08:24:51;18.70;70.50
33476;DHT22;19814;48.224;11.422;2023-10-08T08:27:25;18.80;68.80
33476;DHT22;19814;48.224;11.422;2023-10-08T08:29:57;18.70;68.20
33476;DHT22;19814;48.224;11.422;2023-10-08T08:32:38;18.70;70.50
33476;DHT22;19814;48.224;11.422;2023-10-08T08:35:12;18.60;70.90
33476;DHT22;19814;48.224;11.422;2023-10-08T08:37:42;18.60;69.90
33476;DHT22;19814;48.224;11.422;2023-10-08T08:40:08;18.50;70.50
33476;DHT22;19814;48.224;11.422;2023-10-08T08:42:35;18.50;72.00
33476;DHT22;19814;48.224;11.422;2023-10-08T08:45:09;18.50;70.40
33476;DHT22;19814;48.224;11.422;2023-10-08T08:47:36;18.50;70.60
33476;DHT22;19814;48.224;11.422;2023-10-08T08:50:03;18.40;71.00
33476;DHT22;19814;48.224;11.422;2023-10-08T08:52:35;18.50;72.40
33476;DHT22;19814;48.224;11.422;2023-10-08T08:55:03;18.60;71.20
33476;DHT22;19814;48.224;11.422;2023-10-08T08:57:32;18.70;70.00
33476;DHT22;19814;48.224;11.422;2023-10-08T08:59:59;18.70;70.70
33476;DHT22;19814;48.224;11.422;2023-10-08T09:02:24;18.70;72.30
33476;DHT22;19814;48.224;11.422;2023-10-08T09:04:50;18.80;70.90
33476;DHT22;19814;48.224;11.422;2023-10-08T09:07:20;18.90;73.10
33476;DHT22;19814;48.224;11.422;2023-10-08T09:09:47;19.10;74.20
33476;DHT22;19814;48.224;11.422;2023-10-08T09:12:16;19.20;72.40
33476;DHT22;19814;48.224;11.422;2023-10-08T09:14:42;19.20;72.30
33476;DHT22;19814;48.224;11.422;2023-10-08T09:17:10;19.20;73.20
33476;DHT22;19814;48.224;11.422;2023-10-08T09:19:36;19.20;72.70
33476;DHT22;19814;48.224;11.422;2023-10-08T09:22:12;19.20;72.70
33476;DHT22;19814;48.224;11.422;2023-10-08T09:24:39;19.10;72.50
33476;DHT22;19814;48.224;11.422;2023-10-08T09:27:06;19.00;70.90
33476;DHT22;19814;48.224;11.422;2023-10-08T09:29:33;19.00;71.40
33476;DHT22;19814;48.224;11.422;2023-10-08T09:32:05;19.00;70.80
33476;DHT22;19814;48.224;11.422;2023-10-08T09:34:33;18.90;71.00
33476;DHT22;19814;48.224;11.422;2023-10-08T09:37:00;18.90;71.90
33476;DHT22;19814;48.224;11.422;2023-10-08T09:39:27;18.90;70.70
33476;DHT22;19814;48.224;11.422;2023-10-08T09:41:55;19.00;71.60
33476;DHT22;19814;48.224;11.422;2023-10-08T09:44:22;19.10;73.00
33476;DHT22;19814;48.224;11.422;2023-10-08T09:49:40;19.40;70.80
33476;DHT22;19814;48.224;11.422;2023-10-08T09:52:10;19.40;72.50
33476;DHT22;19814;48.224;11.422;2023-10-08T09:54:43;19.50;72.80
33476;DHT22;19814;48.224;11.422;2023-10-08T09:57:10;19.70;72.20
33476;DHT22;19814;48.224;11.422;2023-10-08T09:59:36;19.80;73.80
33476;DHT22;19814;48.224;11.422;2023-10-08T10:02:04;19.90;73.00
33476;DHT22;19814;48.224;11.422;2023-10-08T10:04:31;20.00;70.40
33476;DHT22;19814;48.224;11.422;2023-10-08T10:07:13;20.10;69.80
33476;DHT22;19814;48.224;11.422;2023-10-08T10:09:44;19.90;70.50
33476;DHT22;19814;48.224;11.422;2023-10-08T10:12:12;19.90;70.10
33476;DHT22;19814;48.224;11.422;2023-10-08T10:14:46;19.80;71.80
33476;DHT22;19814;48.224;11.422;2023-10-08T10:17:19;19.80;71.80
33476;DHT22;19814;48.224;11.422;2023-10-08T10:20:11;19.90;71.10
33476;DHT22;19814;48.224;11.422;2023-10-08T10:22:39;19.90;70.40
33476;DHT22;19814;48.224;11.422;2023-10-08T10:25:05;19.80;69.80
33476;DHT22;19814;48.224;11.422;2023-10-08T10:30:18;19.70;70.40
33476;DHT22;19814;48.224;11.422;2023-10-08T10:32:45;19.60;71.90
33476;DHT22;19814;48.224;11.422;2023-10-08T10:35:17;19.60;72.10
33476;DHT22;19814;48.224;11.422;2023-10-08T10:37:46;19.60;72.70
33476;DHT22;19814;48.224;11.422;2023-10-08T10:40:22;19.50;73.50
33476;DHT22;19814;48.224;11.422;2023-10-08T10:43:08;19.50;73.80
33476;DHT22;19814;48.224;11.422;2023-10-08T10:45:41;19.40;73.70
33476;DHT22;19814;48.224;11.422;2023-10-08T10:48:13;19.50;75.30
33476;DHT22;19814;48.224;11.422;2023-10-08T10:50:48;19.50;75.10
33476;DHT22;19814;48.224;11.422;2023-10-08T10:53:34;19.60;75.30
33476;DHT22;19814;48.224;11.422;2023-10-08T10:56:11;19.60;74.10
33476;DHT22;19814;48.224;11.422;2023-10-08T10:58:52;19.60;73.00
33476;DHT22;19814;48.224;11.422;2023-10-08T11:01:23;19.60;74.70
33476;DHT22;19814;48.224;11.422;2023-10-08T11:03:52;19.60;75.90
33476;DHT22;19814;48.224;11.422;2023-10-08T11:06:19;19.60;76.50
33476;DHT22;19814;48.224;11.422;2023-10-08T11:08:50;19.60;77.20
33476;DHT22;19814;48.224;11.422;2023-10-08T11:11:17;19.70;77.40
33476;DHT22;19814;48.224;11.422;2023-10-08T11:13:43;19.60;77.00
33476;DHT22;19814;48.224;11.422;2023-10-08T11:16:12;19.60;76.40
33476;DHT22;19814;48.224;11.422;2023-10-08T11:18:46;19.50;74.60
33476;DHT22;19814;48.224;11.422;2023-10-08T11:21:23;19.50;74.30
33476;DHT22;19814;48.224;11.422;2023-10-08T11:23:51;19.50;74.20
33476;DHT22;19814;48.224;11.422;2023-10-08T11:26:25;19.40;74.40
33476;DHT22;19814;48.224;11.422;2023-10-08T11:29:05;19.30;75.30
33476;DHT22;19814;48.224;11.422;2023-10-08T11:31:40;19.30;75.60
33476;DHT22;19814;48.224;11.422;2023-10-08T11:34:05;19.30;76.50
33476;DHT22;19814;48.224;11.422;2023-10-08T11:36:36;19.20;76.10
33476;DHT22;19814;48.224;11.422;2023-10-08T11:39:14;19.20;75.90
33476;DHT22;19814;48.224;11.422;2023-10-08T11:41:57;19.20;75.80
33476;DHT22;19814;48.224;11.422;2023-10-08T11:44:22;19.30;77.10
33476;DHT22;19814;48.224;11.422;2023-10-08T11:46:49;19.30;76.20
33476;DHT22;19814;48.224;11.422;2023-10-08T11:49:18;19.30;77.40
33476;DHT22;19814;48.224;11.422;2023-10-08T11:51:45;19.30;76.60
33476;DHT22;19814;48.224;11.422;2023-10-08T11:54:11;19.30;78.10
33476;DHT22;19814;48.224;11.422;2023-10-08T11:56:38;19.30;78.10
33476;DHT22;19814;48.224;11.422;2023-10-08T11:59:04;19.30;78.40
33476;DHT22;19814;48.224;11.422;2023-10-08T12:01:37;19.30;79.10
33476;DHT22;19814;48.224;11.422;2023-10-08T12:04:06;19.30;79.40
33476;DHT22;19814;48.224;11.422;2023-10-08T12:06:41;19.40;79.20
33476;DHT22;19814;48.224;11.422;2023-10-08T12:09:12;19.40;79.90
33476;DHT22;19814;48.224;11.422;2023-10-08T12:11:38;19.40;79.60
33476;DHT22;19814;48.224;11.422;2023-10-08T12:14:05;19.40;79.20
33476;DHT22;19814;48.224;11.422;2023-10-08T12:16:31;19.30;79.50
33476;DHT22;19814;48.224;11.422;2023-10-08T12:19:01;19.40;79.70
33476;DHT22;19814;48.224;11.422;2023-10-08T12:21:30;19.30;77.40
33476;DHT22;19814;48.224;11.422;2023-10-08T12:23:59;19.30;78.20
33476;DHT22;19814;48.224;11.422;2023-10-08T12:26:25;19.30;79.10
33476;DHT22;19814;48.224;11.422;2023-10-08T12:28:51;19.20;78.50
33476;DHT22;19814;48.224;11.422;2023-10-08T12:31:18;19.20;78.80
33476;DHT22;19814;48.224;11.422;2023-10-08T12:33:48;19.10;79.30
33476;DHT22;19814;48.224;11.422;2023-10-08T12:36:16;19.10;78.90
33476;DHT22;19814;48.224;11.422;2023-10-08T12:38:43;19.10;78.90
33476;DHT22;19814;48.224;11.422;2023-10-08T12:41:12;19.10;80.10
33476;DHT22;19814;48.224;11.422;2023-10-08T12:43:39;19.10;80.00
33476;DHT22;19814;48.224;11.422;2023-10-08T12:46:08;19.20;80.40
33476;DHT22;19814;48.224;11.422;2023-10-08T12:48:37;19.10;80.40
33476;DHT22;19814;48.224;11.422;2023-10-08T12:51:03;19.20;81.50
33476;DHT22;19814;48.224;11.422;2023-10-08T12:53:32;19.20;81.30
33476;DHT22;19814;48.224;11.422;2023-10-08T12:56:05;19.30;82.00
33476;DHT22;19814;48.224;11.422;2023-10-08T12:58:35;19.40;81.10
33476;DHT22;19814;48.224;11.422;2023-10-08T13:01:07;19.30;79.50
33476;DHT22;19814;48.224;11.422;2023-10-08T13:03:38;19.40;80.60
33476;DHT22;19814;48.224;11.422;2023-10-08T13:06:10;19.40;79.80
33476;DHT22;19814;48.224;11.422;2023-10-08T13:08:40;19.50;77.50
33476;DHT22;19814;48.224;11.422;2023-10-08T13:11:06;19.50;78.40
33476;DHT22;19814;48.224;11.422;2023-10-08T13:13:32;19.60;79.40
33476;DHT22;19814;48.224;11.422;2023-10-08T13:15:59;19.70;79.80
33476;DHT22;19814;48.224;11.422;2023-10-08T13:18:28;19.80;79.20
33476;DHT22;19814;48.224;11.422;2023-10-08T13:20:54;19.90;77.80
33476;DHT22;19814;48.224;11.422;2023-10-08T13:23:20;19.90;78.50
33476;DHT22;19814;48.224;11.422;2023-10-08T13:25:55;20.10;74.90
33476;DHT22;19814;48.224;11.422;2023-10-08T13:28:21;20.10;75.00
33476;DHT22;19814;48.224;11.422;2023-10-08T13:30:51;20.10;76.40
33476;DHT22;19814;48.224;11.422;2023-10-08T13:33:23;20.20;77.30
33476;DHT22;19814;48.224;11.422;2023-10-08T13:35:49;20.20;77.30
33476;DHT22;19814;48.224;11.422;2023-10-08T13:38:16;20.30;76.60
33476;DHT22;19814;48.224;11.422;2023-10-08T13:40:42;20.50;76.00
33476;DHT22;19814;48.224;11.422;2023-10-08T13:43:28;20.60;76.90
33476;DHT22;19814;48.224;11.422;2023-10-08T13:46:02;20.60;77.30
33476;DHT22;19814;48.224;11.422;2023-10-08T13:48:34;20.60;76.70
33476;DHT22;19814;48.224;11.422;2023-10-08T13:51:02;20.50;77.30
33476;DHT22;19814;48.224;11.422;2023-10-08T13:53:30;20.50;75.70
33476;DHT22;19814;48.224;11.422;2023-10-08T13:56:02;20.40;76.40
33476;DHT22;19814;48.224;11.422;2023-10-08T13:58:30;20.40;76.60
33476;DHT22;19814;48.224;11.422;2023-10-08T14:00:58;20.30;75.20
33476;DHT22;19814;48.224;11.422;2023-10-08T14:03:28;20.30;76.80
33476;DHT22;19814;48.224;11.422;2023-10-08T14:05:59;20.30;77.00
33476;DHT22;19814;48.224;11.422;2023-10-08T14:08:30;20.30;76.20
33476;DHT22;19814;48.224;11.422;2023-10-08T14:10:57;20.30;77.60
33476;DHT22;19814;48.224;11.422;2023-10-08T14:13:29;20.30;78.50
33476;DHT22;19814;48.224;11.422;2023-10-08T14:15:57;20.30;78.00
33476;DHT22;19814;48.224;11.422;2023-10-08T14:18:23;20.20;79.50
33476;DHT22;19814;48.224;11.422;2023-10-08T14:20:54;20.20;80.00
33476;DHT22;19814;48.224;11.422;2023-10-08T14:23:23;20.20;80.30
33476;DHT22;19814;48.224;11.422;2023-10-08T14:25:52;20.20;80.60
33476;DHT22;19814;48.224;11.422;2023-10-08T14:28:20;20.20;82.60
33476;DHT22;19814;48.224;11.422;2023-10-08T14:31:06;20.20;83.00
33476;DHT22;19814;48.224;11.422;2023-10-08T14:33:32;20.20;82.10
33476;DHT22;19814;48.224;11.422;2023-10-08T14:36:08;20.10;82.30
33476;DHT22;19814;48.224;11.422;2023-10-08T14:39:03;20.10;80.40
33476;DHT22;19814;48.224;11.422;2023-10-08T14:41:47;20.00;80.60
33476;DHT22;19814;48.224;11.422;2023-10-08T14:44:31;20.00;82.30
33476;DHT22;19814;48.224;11.422;2023-10-08T14:47:00;19.90;82.60
33476;DHT22;19814;48.224;11.422;2023-10-08T14:49:25;19.90;83.50
33476;DHT22;19814;48.224;11.422;2023-10-08T14:51:51;19.90;84.00
33476;DHT22;19814;48.224;11.422;2023-10-08T14:54:18;19.80;82.90
33476;DHT22;19814;48.224;11.422;2023-10-08T14:56:46;19.80;81.90
33476;DHT22;19814;48.224;11.422;2023-10-08T14:59:11;19.80;80.50
33476;DHT22;19814;48.224;11.422;2023-10-08T15:01:37;19.70;81.90
33476;DHT22;19814;48.224;11.422;2023-10-08T15:04:04;19.60;82.60
33476;DHT22;19814;48.224;11.422;2023-10-08T15:06:31;19.70;81.80
33476;DHT22;19814;48.224;11.422;2023-10-08T15:08:57;19.60;81.90
33476;DHT22;19814;48.224;11.422;2023-10-08T15:11:23;19.60;82.10
33476;DHT22;19814;48.224;11.422;2023-10-08T15:13:50;19.60;82.60
33476;DHT22;19814;48.224;11.422;2023-10-08T15:16:19;19.60;83.60
33476;DHT22;19814;48.224;11.422;2023-10-08T15:18:48;19.50;83.70
33476;DHT22;19814;48.224;11.422;2023-10-08T15:21:14;19.60;84.60
33476;DHT22;19814;48.224;11.422;2023-10-08T15:23:40;19.50;86.10
33476;DHT22;19814;48.224;11.422;2023-10-08T15:26:06;19.50;86.50
33476;DHT22;19814;48.224;11.422;2023-10-08T15:28:32;19.40;87.30
33476;DHT22;19814;48.224;11.422;2023-10-08T15:30:59;19.40;88.10
33476;DHT22;19814;48.224;11.422;2023-10-08T15:33:24;19.30;88.50
33476;DHT22;19814;48.224;11.422;2023-10-08T15:35:52;19.30;89.10
33476;DHT22;19814;48.224;11.422;2023-10-08T15:38:17;19.20;89.30
33476;DHT22;19814;48.224;11.422;2023-10-08T15:40:43;19.10;89.60
33476;DHT22;19814;48.224;11.422;2023-10-08T15:43:09;19.10;90.00
33476;DHT22;19814;48.224;11.422;2023-10-08T15:45:36;19.10;90.30